sensor_id;sensor_type;location;lat;lon;timestamp;P1;durP1;ratioP1;P2;durP2;ratioP2
80183;SDS011;69682;52.138;5.440;2024-01-11T00:00:40;8.63;;;5.13;;
80183;SDS011;69682;52.138;5.440;2024-01-11T00:03:07;9.55;;;5.47;;
80183;SDS011;69682;52.138;5.440;2024-01-11T00:05:34;12.77;;;5.60;;
80183;SDS011;69682;52.138;5.440;2024-01-11T00:08:08;10.60;;;4.97;;
80183;SDS011;69682;52.138;5.440;2024-01-11T00:10:34;7.57;;;4.88;;
80183;SDS011;69682;52.138;5.440;2024-01-11T00:13:01;8.35;;;5.25;;
80183;SDS011;69682;52.138;5.440;2024-01-11T00:15:28;14.45;;;5.55;;
80183;SDS011;69682;52.138;5.440;2024-01-11T00:17:55;12.27;;;5.88;;
80183;SDS011;69682;52.138;5.440;2024-01-11T00:20:21;6.95;;;3.65;;
80183;SDS011;69682;52.138;5.440;2024-01-11T00:22:48;9.43;;;4.72;;
80183;SDS011;69682;52.138;5.440;2024-01-11T00:25:15;7.15;;;4.45;;
80183;SDS011;69682;52.138;5.440;2024-01-11T00:27:41;13.15;;;5.63;;
80183;SDS011;69682;52.138;5.440;2024-01-11T00:30:08;7.88;;;4.50;;
80183;SDS011;69682;52.138;5.440;2024-01-11T00:32:35;10.20;;;6.05;;
80183;SDS011;69682;52.138;5.440;2024-01-11T00:35:01;11.00;;;5.18;;
80183;SDS011;69682;52.138;5.440;2024-01-11T00:37:36;10.77;;;4.95;;
80183;SDS011;69682;52.138;5.440;2024-01-11T00:40:03;9.10;;;6.03;;
80183;SDS011;69682;52.138;5.440;2024-01-11T00:42:32;9.60;;;5.18;;
80183;SDS011;69682;52.138;5.440;2024-01-11T00:45:01;10.13;;;4.50;;
80183;SDS011;69682;52.138;5.440;2024-01-11T00:47:28;8.13;;;5.00;;
80183;SDS011;69682;52.138;5.440;2024-01-11T00:49:56;12.90;;;4.97;;
80183;SDS011;69682;52.138;5.440;2024-01-11T00:52:23;10.73;;;4.47;;
80183;SDS011;69682;52.138;5.440;2024-01-11T00:54:50;9.88;;;4.95;;
80183;SDS011;69682;52.138;5.440;2024-01-11T00:57:17;10.45;;;5.10;;
80183;SDS011;69682;52.138;5.440;2024-01-11T00:59:47;6.43;;;4.28;;
80183;SDS011;69682;52.138;5.440;2024-01-11T01:02:16;9.68;;;4.32;;
80183;SDS011;69682;52.138;5.440;2024-01-11T01:04:43;9.45;;;5.10;;
80183;SDS011;69682;52.138;5.440;2024-01-11T01:07:09;8.70;;;4.68;;
80183;SDS011;69682;52.138;5.440;2024-01-11T01:09:36;8.15;;;4.70;;
80183;SDS011;69682;52.138;5.440;2024-01-11T01:12:03;11.05;;;4.82;;
80183;SDS011;69682;52.138;5.440;2024-01-11T01:14:30;9.60;;;4.78;;
80183;SDS011;69682;52.138;5.440;2024-01-11T01:16:57;10.23;;;4.25;;
80183;SDS011;69682;52.138;5.440;2024-01-11T01:19:23;9.85;;;4.75;;
80183;SDS011;69682;52.138;5.440;2024-01-11T01:21:50;8.57;;;4.85;;
80183;SDS011;69682;52.138;5.440;2024-01-11T01:24:18;10.50;;;5.22;;
80183;SDS011;69682;52.138;5.440;2024-01-11T01:26:44;8.27;;;4.30;;
80183;SDS011;69682;52.138;5.440;2024-01-11T01:29:11;7.88;;;5.03;;
80183;SDS011;69682;52.138;5.440;2024-01-11T01:31:38;10.80;;;4.35;;
80183;SDS011;69682;52.138;5.440;2024-01-11T01:34:06;12.80;;;5.32;;
80183;SDS011;69682;52.138;5.440;2024-01-11T01:36:34;10.13;;;4.53;;
80183;SDS011;69682;52.138;5.440;2024-01-11T01:39:02;11.43;;;5.25;;
80183;SDS011;69682;52.138;5.440;2024-01-11T01:41:29;8.63;;;4.68;;
80183;SDS011;69682;52.138;5.440;2024-01-11T01:43:56;10.02;;;4.80;;
80183;SDS011;69682;52.138;5.440;2024-01-11T01:46:23;6.30;;;4.22;;
80183;SDS011;69682;52.138;5.440;2024-01-11T01:48:52;7.55;;;3.60;;
80183;SDS011;69682;52.138;5.440;2024-01-11T01:51:30;10.75;;;4.57;;
80183;SDS011;69682;52.138;5.440;2024-01-11T01:53:58;7.93;;;4.45;;
80183;SDS011;69682;52.138;5.440;2024-01-11T01:56:27;11.50;;;6.20;;
80183;SDS011;69682;52.138;5.440;2024-01-11T01:58:54;7.82;;;4.68;;
80183;SDS011;69682;52.138;5.440;2024-01-11T02:01:24;10.02;;;4.53;;
80183;SDS011;69682;52.138;5.440;2024-01-11T02:03:55;9.77;;;5.10;;
80183;SDS011;69682;52.138;5.440;2024-01-11T02:06:24;10.65;;;5.93;;
80183;SDS011;69682;52.138;5.440;2024-01-11T02:09:03;7.93;;;4.75;;
80183;SDS011;69682;52.138;5.440;2024-01-11T02:11:36;12.80;;;4.95;;
80183;SDS011;69682;52.138;5.440;2024-01-11T02:14:04;8.32;;;5.25;;
80183;SDS011;69682;52.138;5.440;2024-01-11T02:16:36;8.68;;;5.03;;
80183;SDS011;69682;52.138;5.440;2024-01-11T02:19:28;8.88;;;5.55;;
80183;SDS011;69682;52.138;5.440;2024-01-11T02:22:05;10.73;;;4.50;;
80183;SDS011;69682;52.138;5.440;2024-01-11T02:24:37;14.25;;;5.28;;
80183;SDS011;69682;52.138;5.440;2024-01-11T02:27:06;8.23;;;4.97;;
80183;SDS011;69682;52.138;5.440;2024-01-11T02:29:49;8.60;;;4.65;;
80183;SDS011;69682;52.138;5.440;2024-01-11T02:32:38;12.50;;;6.22;;
80183;SDS011;69682;52.138;5.440;2024-01-11T02:35:30;9.02;;;5.47;;
80183;SDS011;69682;52.138;5.440;2024-01-11T02:38:09;6.78;;;4.03;;
80183;SDS011;69682;52.138;5.440;2024-01-11T02:40:38;8.05;;;4.68;;
80183;SDS011;69682;52.138;5.440;2024-01-11T02:43:12;13.10;;;5.10;;
80183;SDS011;69682;52.138;5.440;2024-01-11T02:46:07;11.32;;;5.95;;
80183;SDS011;69682;52.138;5.440;2024-01-11T02:48:51;8.85;;;4.82;;
80183;SDS011;69682;52.138;5.440;2024-01-11T02:51:20;13.82;;;5.25;;
80183;SDS011;69682;52.138;5.440;2024-01-11T02:53:51;10.45;;;4.45;;
80183;SDS011;69682;52.138;5.440;2024-01-11T02:56:29;10.73;;;5.18;;
80183;SDS011;69682;52.138;5.440;2024-01-11T02:59:06;12.57;;;5.47;;
80183;SDS011;69682;52.138;5.440;2024-01-11T03:01:37;9.65;;;5.90;;
80183;SDS011;69682;52.138;5.440;2024-01-11T03:04:06;9.30;;;4.88;;
80183;SDS011;69682;52.138;5.440;2024-01-11T03:06:51;12.27;;;5.55;;
80183;SDS011;69682;52.138;5.440;2024-01-11T03:09:18;10.38;;;4.75;;
80183;SDS011;69682;52.138;5.440;2024-01-11T03:11:46;11.02;;;6.20;;
80183;SDS011;69682;52.138;5.440;2024-01-11T03:14:15;8.25;;;5.43;;
80183;SDS011;69682;52.138;5.440;2024-01-11T03:16:54;11.90;;;6.80;;
80183;SDS011;69682;52.138;5.440;2024-01-11T03:19:43;13.55;;;7.22;;
80183;SDS011;69682;52.138;5.440;2024-01-11T03:22:11;14.50;;;6.47;;
80183;SDS011;69682;52.138;5.440;2024-01-11T03:24:38;9.55;;;5.28;;
80183;SDS011;69682;52.138;5.440;2024-01-11T03:27:07;16.05;;;7.00;;
80183;SDS011;69682;52.138;5.440;2024-01-11T03:29:34;13.45;;;7.18;;
80183;SDS011;69682;52.138;5.440;2024-01-11T03:32:04;11.13;;;6.95;;
80183;SDS011;69682;52.138;5.440;2024-01-11T03:34:31;10.32;;;7.05;;
80183;SDS011;69682;52.138;5.440;2024-01-11T03:36:57;14.13;;;6.85;;
80183;SDS011;69682;52.138;5.440;2024-01-11T03:39:25;7.57;;;5.65;;
80183;SDS011;69682;52.138;5.440;2024-01-11T03:41:51;16.80;;;8.27;;
80183;SDS011;69682;52.138;5.440;2024-01-11T03:44:18;10.68;;;6.10;;
80183;SDS011;69682;52.138;5.440;2024-01-11T03:46:47;13.10;;;8.23;;
80183;SDS011;69682;52.138;5.440;2024-01-11T03:49:13;17.25;;;8.18;;
80183;SDS011;69682;52.138;5.440;2024-01-11T03:51:49;12.43;;;6.18;;
80183;SDS011;69682;52.138;5.440;2024-01-11T03:54:15;14.18;;;7.53;;
80183;SDS011;69682;52.138;5.440;2024-01-11T03:56:42;14.30;;;7.95;;
80183;SDS011;69682;52.138;5.440;2024-01-11T03:59:10;12.68;;;7.88;;
80183;SDS011;69682;52.138;5.440;2024-01-11T04:01:47;15.98;;;7.43;;
80183;SDS011;69682;52.138;5.440;2024-01-11T04:04:14;12.32;;;8.38;;
80183;SDS011;69682;52.138;5.440;2024-01-11T04:06:40;14.13;;;7.75;;
80183;SDS011;69682;52.138;5.440;2024-01-11T04:09:07;15.15;;;7.53;;
80183;SDS011;69682;52.138;5.440;2024-01-11T04:11:34;18.27;;;8.27;;
80183;SDS011;69682;52.138;5.440;2024-01-11T04:14:00;21.00;;;9.55;;
80183;SDS011;69682;52.138;5.440;2024-01-11T04:16:27;16.95;;;7.60;;
80183;SDS011;69682;52.138;5.440;2024-01-11T04:18:54;14.10;;;7.72;;
80183;SDS011;69682;52.138;5.440;2024-01-11T04:21:33;14.52;;;8.43;;
80183;SDS011;69682;52.138;5.440;2024-01-11T04:24:00;19.90;;;7.85;;
80183;SDS011;69682;52.138;5.440;2024-01-11T04:26:26;15.43;;;8.27;;
80183;SDS011;69682;52.138;5.440;2024-01-11T04:28:53;16.40;;;9.15;;
80183;SDS011;69682;52.138;5.440;2024-01-11T04:31:25;18.27;;;8.18;;
80183;SDS011;69682;52.138;5.440;2024-01-11T04:33:52;16.20;;;8.05;;
80183;SDS011;69682;52.138;5.440;2024-01-11T04:36:19;16.52;;;8.32;;
80183;SDS011;69682;52.138;5.440;2024-01-11T04:38:46;18.08;;;8.52;;
80183;SDS011;69682;52.138;5.440;2024-01-11T04:41:13;16.35;;;9.07;;
80183;SDS011;69682;52.138;5.440;2024-01-11T04:43:41;14.32;;;9.05;;
80183;SDS011;69682;52.138;5.440;2024-01-11T04:46:15;17.40;;;7.82;;
80183;SDS011;69682;52.138;5.440;2024-01-11T04:48:43;16.40;;;7.53;;
80183;SDS011;69682;52.138;5.440;2024-01-11T04:51:10;17.35;;;9.55;;
80183;SDS011;69682;52.138;5.440;2024-01-11T04:53:38;13.65;;;7.32;;
80183;SDS011;69682;52.138;5.440;2024-01-11T04:56:06;15.25;;;7.18;;
80183;SDS011;69682;52.138;5.440;2024-01-11T04:58:38;13.43;;;7.80;;
80183;SDS011;69682;52.138;5.440;2024-01-11T05:01:07;14.27;;;8.18;;
80183;SDS011;69682;52.138;5.440;2024-01-11T05:03:37;20.52;;;8.07;;
80183;SDS011;69682;52.138;5.440;2024-01-11T05:06:04;12.18;;;6.47;;
80183;SDS011;69682;52.138;5.440;2024-01-11T05:08:31;18.15;;;9.63;;
80183;SDS011;69682;52.138;5.440;2024-01-11T05:10:58;14.45;;;7.47;;
80183;SDS011;69682;52.138;5.440;2024-01-11T05:13:24;15.25;;;9.48;;
80183;SDS011;69682;52.138;5.440;2024-01-11T05:15:54;18.00;;;9.85;;
80183;SDS011;69682;52.138;5.440;2024-01-11T05:18:21;14.25;;;8.23;;
80183;SDS011;69682;52.138;5.440;2024-01-11T05:20:47;22.05;;;11.50;;
80183;SDS011;69682;52.138;5.440;2024-01-11T05:23:14;17.80;;;9.15;;
80183;SDS011;69682;52.138;5.440;2024-01-11T05:25:40;14.82;;;7.93;;
80183;SDS011;69682;52.138;5.440;2024-01-11T05:28:07;16.15;;;9.38;;
80183;SDS011;69682;52.138;5.440;2024-01-11T05:30:33;18.70;;;10.43;;
80183;SDS011;69682;52.138;5.440;2024-01-11T05:33:00;13.38;;;7.00;;
80183;SDS011;69682;52.138;5.440;2024-01-11T05:35:27;18.02;;;10.05;;
80183;SDS011;69682;52.138;5.440;2024-01-11T05:37:54;18.08;;;9.88;;
80183;SDS011;69682;52.138;5.440;2024-01-11T05:40:23;16.00;;;8.45;;
80183;SDS011;69682;52.138;5.440;2024-01-11T05:42:50;19.55;;;9.90;;
80183;SDS011;69682;52.138;5.440;2024-01-11T05:45:17;14.23;;;8.25;;
80183;SDS011;69682;52.138;5.440;2024-01-11T05:47:50;17.42;;;9.70;;
80183;SDS011;69682;52.138;5.440;2024-01-11T05:50:16;11.73;;;6.50;;
80183;SDS011;69682;52.138;5.440;2024-01-11T05:52:43;16.45;;;9.65;;
80183;SDS011;69682;52.138;5.440;2024-01-11T05:55:10;15.88;;;8.95;;
80183;SDS011;69682;52.138;5.440;2024-01-11T05:57:36;18.02;;;9.30;;
80183;SDS011;69682;52.138;5.440;2024-01-11T06:00:04;17.55;;;9.88;;
80183;SDS011;69682;52.138;5.440;2024-01-11T06:02:31;19.35;;;11.05;;
80183;SDS011;69682;52.138;5.440;2024-01-11T06:04:58;24.35;;;8.88;;
80183;SDS011;69682;52.138;5.440;2024-01-11T06:07:25;21.77;;;9.93;;
80183;SDS011;69682;52.138;5.440;2024-01-11T06:09:51;16.83;;;8.50;;
80183;SDS011;69682;52.138;5.440;2024-01-11T06:12:19;17.75;;;9.13;;
80183;SDS011;69682;52.138;5.440;2024-01-11T06:14:45;19.40;;;9.07;;
80183;SDS011;69682;52.138;5.440;2024-01-11T06:17:32;19.67;;;10.32;;
80183;SDS011;69682;52.138;5.440;2024-01-11T06:20:05;15.80;;;7.53;;
80183;SDS011;69682;52.138;5.440;2024-01-11T06:22:32;17.63;;;9.25;;
80183;SDS011;69682;52.138;5.440;2024-01-11T06:24:59;22.02;;;9.77;;
80183;SDS011;69682;52.138;5.440;2024-01-11T06:27:26;18.88;;;10.55;;
80183;SDS011;69682;52.138;5.440;2024-01-11T06:29:52;14.25;;;8.75;;
80183;SDS011;69682;52.138;5.440;2024-01-11T06:32:19;14.35;;;7.25;;
80183;SDS011;69682;52.138;5.440;2024-01-11T06:34:45;18.08;;;9.10;;
80183;SDS011;69682;52.138;5.440;2024-01-11T06:37:13;24.88;;;12.77;;
80183;SDS011;69682;52.138;5.440;2024-01-11T06:39:40;17.35;;;9.77;;
80183;SDS011;69682;52.138;5.440;2024-01-11T06:42:07;17.98;;;9.25;;
80183;SDS011;69682;52.138;5.440;2024-01-11T06:44:33;15.25;;;9.25;;
80183;SDS011;69682;52.138;5.440;2024-01-11T06:47:00;25.30;;;10.48;;
80183;SDS011;69682;52.138;5.440;2024-01-11T06:49:28;19.30;;;9.80;;
80183;SDS011;69682;52.138;5.440;2024-01-11T06:51:54;19.52;;;10.38;;
80183;SDS011;69682;52.138;5.440;2024-01-11T06:54:27;28.38;;;10.70;;
80183;SDS011;69682;52.138;5.440;2024-01-11T06:56:57;21.27;;;8.73;;
80183;SDS011;69682;52.138;5.440;2024-01-11T06:59:24;17.70;;;9.05;;
80183;SDS011;69682;52.138;5.440;2024-01-11T07:01:52;15.68;;;8.43;;
80183;SDS011;69682;52.138;5.440;2024-01-11T07:04:18;20.40;;;9.95;;
80183;SDS011;69682;52.138;5.440;2024-01-11T07:06:45;21.63;;;9.52;;
80183;SDS011;69682;52.138;5.440;2024-01-11T07:09:14;19.65;;;9.85;;
80183;SDS011;69682;52.138;5.440;2024-01-11T07:11:43;22.60;;;11.20;;
80183;SDS011;69682;52.138;5.440;2024-01-11T07:14:14;19.40;;;10.93;;
80183;SDS011;69682;52.138;5.440;2024-01-11T07:16:43;22.35;;;10.63;;
80183;SDS011;69682;52.138;5.440;2024-01-11T07:19:10;15.90;;;9.98;;
80183;SDS011;69682;52.138;5.440;2024-01-11T07:21:38;17.88;;;11.07;;
80183;SDS011;69682;52.138;5.440;2024-01-11T07:24:04;15.95;;;8.98;;
80183;SDS011;69682;52.138;5.440;2024-01-11T07:26:31;18.30;;;10.15;;
80183;SDS011;69682;52.138;5.440;2024-01-11T07:28:57;21.45;;;9.85;;
80183;SDS011;69682;52.138;5.440;2024-01-11T07:31:24;19.05;;;10.50;;
80183;SDS011;69682;52.138;5.440;2024-01-11T07:33:51;24.92;;;9.98;;
80183;SDS011;69682;52.138;5.440;2024-01-11T07:36:18;20.10;;;11.30;;
80183;SDS011;69682;52.138;5.440;2024-01-11T07:38:45;25.30;;;10.77;;
80183;SDS011;69682;52.138;5.440;2024-01-11T07:41:11;19.40;;;9.73;;
80183;SDS011;69682;52.138;5.440;2024-01-11T07:43:39;23.38;;;11.48;;
80183;SDS011;69682;52.138;5.440;2024-01-11T07:46:19;21.48;;;10.45;;
80183;SDS011;69682;52.138;5.440;2024-01-11T07:48:59;24.27;;;9.30;;
80183;SDS011;69682;52.138;5.440;2024-01-11T07:51:26;16.05;;;9.48;;
80183;SDS011;69682;52.138;5.440;2024-01-11T07:53:53;26.80;;;9.70;;
80183;SDS011;69682;52.138;5.440;2024-01-11T07:56:20;16.25;;;8.48;;
80183;SDS011;69682;52.138;5.440;2024-01-11T07:58:46;19.58;;;10.18;;
80183;SDS011;69682;52.138;5.440;2024-01-11T08:01:15;23.80;;;9.75;;
80183;SDS011;69682;52.138;5.440;2024-01-11T08:03:43;18.60;;;10.35;;
80183;SDS011;69682;52.138;5.440;2024-01-11T08:06:13;27.38;;;10.85;;
80183;SDS011;69682;52.138;5.440;2024-01-11T08:08:41;19.90;;;11.30;;
80183;SDS011;69682;52.138;5.440;2024-01-11T08:11:07;18.33;;;11.25;;
80183;SDS011;69682;52.138;5.440;2024-01-11T08:13:34;22.95;;;11.85;;
80183;SDS011;69682;52.138;5.440;2024-01-11T08:16:01;21.73;;;10.98;;
80183;SDS011;69682;52.138;5.440;2024-01-11T08:18:33;23.08;;;10.45;;
80183;SDS011;69682;52.138;5.440;2024-01-11T08:21:00;20.48;;;11.93;;
80183;SDS011;69682;52.138;5.440;2024-01-11T08:23:26;19.10;;;10.18;;
80183;SDS011;69682;52.138;5.440;2024-01-11T08:25:53;24.38;;;12.18;;
80183;SDS011;69682;52.138;5.440;2024-01-11T08:28:20;24.48;;;11.25;;
80183;SDS011;69682;52.138;5.440;2024-01-11T08:30:47;19.75;;;11.10;;
80183;SDS011;69682;52.138;5.440;2024-01-11T08:33:23;23.55;;;12.48;;
80183;SDS011;69682;52.138;5.440;2024-01-11T08:35:49;22.30;;;10.52;;
80183;SDS011;69682;52.138;5.440;2024-01-11T08:38:16;18.55;;;10.73;;
80183;SDS011;69682;52.138;5.440;2024-01-11T08:40:43;24.25;;;12.00;;
80183;SDS011;69682;52.138;5.440;2024-01-11T08:43:13;19.80;;;11.63;;
80183;SDS011;69682;52.138;5.440;2024-01-11T08:45:39;19.48;;;10.93;;
80183;SDS011;69682;52.138;5.440;2024-01-11T08:48:06;25.23;;;13.35;;
80183;SDS011;69682;52.138;5.440;2024-01-11T08:50:44;18.05;;;8.98;;
80183;SDS011;69682;52.138;5.440;2024-01-11T08:53:10;19.65;;;11.07;;
80183;SDS011;69682;52.138;5.440;2024-01-11T08:55:37;25.25;;;12.70;;
80183;SDS011;69682;52.138;5.440;2024-01-11T08:58:03;20.52;;;10.80;;
80183;SDS011;69682;52.138;5.440;2024-01-11T09:00:30;23.33;;;11.05;;
80183;SDS011;69682;52.138;5.440;2024-01-11T09:02:57;28.90;;;11.18;;
80183;SDS011;69682;52.138;5.440;2024-01-11T09:05:24;21.33;;;9.52;;
80183;SDS011;69682;52.138;5.440;2024-01-11T09:07:51;28.60;;;11.85;;
80183;SDS011;69682;52.138;5.440;2024-01-11T09:10:19;19.85;;;8.85;;
80183;SDS011;69682;52.138;5.440;2024-01-11T09:12:46;16.90;;;9.50;;
80183;SDS011;69682;52.138;5.440;2024-01-11T09:15:13;17.15;;;7.13;;
80183;SDS011;69682;52.138;5.440;2024-01-11T09:17:39;19.23;;;10.73;;
80183;SDS011;69682;52.138;5.440;2024-01-11T09:20:06;20.20;;;10.95;;
80183;SDS011;69682;52.138;5.440;2024-01-11T09:22:33;22.73;;;10.57;;
80183;SDS011;69682;52.138;5.440;2024-01-11T09:25:03;19.85;;;9.80;;
80183;SDS011;69682;52.138;5.440;2024-01-11T09:27:30;14.27;;;7.57;;
80183;SDS011;69682;52.138;5.440;2024-01-11T09:29:59;13.15;;;8.30;;
80183;SDS011;69682;52.138;5.440;2024-01-11T09:32:26;19.10;;;7.13;;
80183;SDS011;69682;52.138;5.440;2024-01-11T09:34:52;21.35;;;9.10;;
80183;SDS011;69682;52.138;5.440;2024-01-11T09:37:19;14.75;;;8.02;;
80183;SDS011;69682;52.138;5.440;2024-01-11T09:39:46;21.40;;;8.98;;
80183;SDS011;69682;52.138;5.440;2024-01-11T09:42:13;16.88;;;9.05;;
80183;SDS011;69682;52.138;5.440;2024-01-11T09:44:40;21.17;;;8.50;;
80183;SDS011;69682;52.138;5.440;2024-01-11T09:47:08;18.15;;;8.23;;
80183;SDS011;69682;52.138;5.440;2024-01-11T09:49:41;21.08;;;10.02;;
80183;SDS011;69682;52.138;5.440;2024-01-11T09:52:11;19.77;;;8.93;;
80183;SDS011;69682;52.138;5.440;2024-01-11T09:54:39;19.98;;;8.55;;
80183;SDS011;69682;52.138;5.440;2024-01-11T09:57:06;20.52;;;9.55;;
80183;SDS011;69682;52.138;5.440;2024-01-11T09:59:34;17.73;;;8.45;;
80183;SDS011;69682;52.138;5.440;2024-01-11T10:02:02;17.88;;;8.57;;
80183;SDS011;69682;52.138;5.440;2024-01-11T10:04:30;22.40;;;9.18;;
80183;SDS011;69682;52.138;5.440;2024-01-11T10:06:56;19.17;;;9.52;;
80183;SDS011;69682;52.138;5.440;2024-01-11T10:09:24;15.93;;;7.22;;
80183;SDS011;69682;52.138;5.440;2024-01-11T10:11:55;21.58;;;9.55;;
80183;SDS011;69682;52.138;5.440;2024-01-11T10:14:22;17.25;;;7.35;;
80183;SDS011;69682;52.138;5.440;2024-01-11T10:16:49;18.90;;;8.18;;
80183;SDS011;69682;52.138;5.440;2024-01-11T10:19:15;19.55;;;9.43;;
80183;SDS011;69682;52.138;5.440;2024-01-11T10:21:43;19.98;;;8.75;;
80183;SDS011;69682;52.138;5.440;2024-01-11T10:24:10;23.23;;;9.82;;
80183;SDS011;69682;52.138;5.440;2024-01-11T10:26:44;13.48;;;7.18;;
80183;SDS011;69682;52.138;5.440;2024-01-11T10:29:10;17.15;;;7.70;;
80183;SDS011;69682;52.138;5.440;2024-01-11T10:31:40;22.02;;;8.52;;
80183;SDS011;69682;52.138;5.440;2024-01-11T10:34:06;23.17;;;7.78;;
80183;SDS011;69682;52.138;5.440;2024-01-11T10:36:33;22.42;;;8.82;;
80183;SDS011;69682;52.138;5.440;2024-01-11T10:39:01;21.50;;;9.73;;
80183;SDS011;69682;52.138;5.440;2024-01-11T10:41:38;16.17;;;6.63;;
80183;SDS011;69682;52.138;5.440;2024-01-11T10:44:12;19.83;;;8.10;;
80183;SDS011;69682;52.138;5.440;2024-01-11T10:46:48;20.45;;;9.02;;
80183;SDS011;69682;52.138;5.440;2024-01-11T10:49:17;26.02;;;10.68;;
80183;SDS011;69682;52.138;5.440;2024-01-11T10:51:45;20.92;;;8.32;;
80183;SDS011;69682;52.138;5.440;2024-01-11T10:54:34;23.50;;;9.38;;
80183;SDS011;69682;52.138;5.440;2024-01-11T10:57:01;18.63;;;9.20;;
80183;SDS011;69682;52.138;5.440;2024-01-11T10:59:31;27.35;;;8.70;;
80183;SDS011;69682;52.138;5.440;2024-01-11T11:02:04;19.05;;;9.35;;
80183;SDS011;69682;52.138;5.440;2024-01-11T11:04:38;20.80;;;8.95;;
80183;SDS011;69682;52.138;5.440;2024-01-11T11:09:35;14.98;;;7.07;;
80183;SDS011;69682;52.138;5.440;2024-01-11T11:12:02;14.65;;;8.10;;
80183;SDS011;69682;52.138;5.440;2024-01-11T11:14:38;19.58;;;8.68;;
80183;SDS011;69682;52.138;5.440;2024-01-11T11:17:05;18.17;;;7.32;;
80183;SDS011;69682;52.138;5.440;2024-01-11T11:19:32;20.20;;;9.70;;
80183;SDS011;69682;52.138;5.440;2024-01-11T11:21:58;18.98;;;7.30;;
80183;SDS011;69682;52.138;5.440;2024-01-11T11:24:25;22.35;;;9.95;;
80183;SDS011;69682;52.138;5.440;2024-01-11T11:26:52;20.95;;;8.40;;
80183;SDS011;69682;52.138;5.440;2024-01-11T11:29:18;23.02;;;8.30;;
80183;SDS011;69682;52.138;5.440;2024-01-11T11:31:46;22.65;;;8.18;;
80183;SDS011;69682;52.138;5.440;2024-01-11T11:34:42;20.67;;;8.85;;
80183;SDS011;69682;52.138;5.440;2024-01-11T11:37:11;15.65;;;9.02;;
80183;SDS011;69682;52.138;5.440;2024-01-11T11:39:38;22.75;;;9.20;;
80183;SDS011;69682;52.138;5.440;2024-01-11T11:44:47;21.98;;;9.55;;
80183;SDS011;69682;52.138;5.440;2024-01-11T11:47:21;15.27;;;6.47;;
80183;SDS011;69682;52.138;5.440;2024-01-11T11:52:26;26.35;;;9.18;;
80183;SDS011;69682;52.138;5.440;2024-01-11T11:54:56;18.40;;;9.05;;
80183;SDS011;69682;52.138;5.440;2024-01-11T11:57:24;14.45;;;7.47;;
80183;SDS011;69682;52.138;5.440;2024-01-11T11:59:52;17.23;;;7.70;;
80183;SDS011;69682;52.138;5.440;2024-01-11T12:02:23;16.55;;;7.18;;
80183;SDS011;69682;52.138;5.440;2024-01-11T12:04:55;18.52;;;6.80;;
80183;SDS011;69682;52.138;5.440;2024-01-11T12:07:21;15.68;;;6.30;;
80183;SDS011;69682;52.138;5.440;2024-01-11T12:09:50;17.83;;;8.95;;
80183;SDS011;69682;52.138;5.440;2024-01-11T12:12:19;17.05;;;8.40;;
80183;SDS011;69682;52.138;5.440;2024-01-11T12:22:34;13.27;;;6.40;;
80183;SDS011;69682;52.138;5.440;2024-01-11T12:25:01;14.65;;;8.05;;
80183;SDS011;69682;52.138;5.440;2024-01-11T12:27:28;19.52;;;7.30;;
80183;SDS011;69682;52.138;5.440;2024-01-11T12:29:57;19.85;;;8.10;;
80183;SDS011;69682;52.138;5.440;2024-01-11T12:32:25;17.52;;;8.27;;
80183;SDS011;69682;52.138;5.440;2024-01-11T12:34:56;16.67;;;7.47;;
80183;SDS011;69682;52.138;5.440;2024-01-11T12:37:23;13.73;;;6.93;;
80183;SDS011;69682;52.138;5.440;2024-01-11T12:39:56;14.88;;;6.65;;
80183;SDS011;69682;52.138;5.440;2024-01-11T12:42:23;11.73;;;5.95;;
80183;SDS011;69682;52.138;5.440;2024-01-11T12:44:50;15.88;;;5.95;;
80183;SDS011;69682;52.138;5.440;2024-01-11T12:47:20;17.70;;;7.25;;
80183;SDS011;69682;52.138;5.440;2024-01-11T12:49:46;12.32;;;6.50;;
80183;SDS011;69682;52.138;5.440;2024-01-11T12:52:16;14.68;;;7.20;;
80183;SDS011;69682;52.138;5.440;2024-01-11T12:54:53;19.48;;;8.75;;
80183;SDS011;69682;52.138;5.440;2024-01-11T12:57:31;16.08;;;8.23;;
80183;SDS011;69682;52.138;5.440;2024-01-11T13:00:12;22.38;;;7.85;;
80183;SDS011;69682;52.138;5.440;2024-01-11T13:02:40;10.68;;;4.22;;
80183;SDS011;69682;52.138;5.440;2024-01-11T13:05:06;15.63;;;7.57;;
80183;SDS011;69682;52.138;5.440;2024-01-11T13:07:36;12.95;;;6.20;;
80183;SDS011;69682;52.138;5.440;2024-01-11T13:10:10;14.45;;;7.57;;
80183;SDS011;69682;52.138;5.440;2024-01-11T13:12:37;12.05;;;7.18;;
80183;SDS011;69682;52.138;5.440;2024-01-11T13:15:04;15.02;;;6.88;;
80183;SDS011;69682;52.138;5.440;2024-01-11T13:17:31;19.65;;;7.55;;
80183;SDS011;69682;52.138;5.440;2024-01-11T13:19:57;15.32;;;7.22;;
80183;SDS011;69682;52.138;5.440;2024-01-11T13:22:28;12.50;;;6.90;;
80183;SDS011;69682;52.138;5.440;2024-01-11T13:24:58;16.75;;;8.00;;
80183;SDS011;69682;52.138;5.440;2024-01-11T13:27:24;18.33;;;7.30;;
80183;SDS011;69682;52.138;5.440;2024-01-11T13:29:51;12.38;;;6.55;;
80183;SDS011;69682;52.138;5.440;2024-01-11T13:32:20;9.18;;;4.70;;
80183;SDS011;69682;52.138;5.440;2024-01-11T13:34:48;14.45;;;6.30;;
80183;SDS011;69682;52.138;5.440;2024-01-11T13:37:15;15.50;;;6.28;;
80183;SDS011;69682;52.138;5.440;2024-01-11T13:39:41;17.98;;;7.28;;
80183;SDS011;69682;52.138;5.440;2024-01-11T13:42:11;13.00;;;7.13;;
80183;SDS011;69682;52.138;5.440;2024-01-11T13:44:38;21.50;;;7.70;;
80183;SDS011;69682;52.138;5.440;2024-01-11T13:47:04;15.48;;;7.70;;
80183;SDS011;69682;52.138;5.440;2024-01-11T13:49:31;11.68;;;5.72;;
80183;SDS011;69682;52.138;5.440;2024-01-11T13:52:00;17.70;;;6.90;;
80183;SDS011;69682;52.138;5.440;2024-01-11T13:54:27;15.68;;;7.63;;
80183;SDS011;69682;52.138;5.440;2024-01-11T13:56:54;14.77;;;6.53;;
80183;SDS011;69682;52.138;5.440;2024-01-11T13:59:21;14.25;;;7.20;;
80183;SDS011;69682;52.138;5.440;2024-01-11T14:01:47;10.15;;;5.70;;
80183;SDS011;69682;52.138;5.440;2024-01-11T14:04:14;12.73;;;6.82;;
80183;SDS011;69682;52.138;5.440;2024-01-11T14:06:41;17.20;;;6.72;;
80183;SDS011;69682;52.138;5.440;2024-01-11T14:09:08;18.55;;;6.80;;
80183;SDS011;69682;52.138;5.440;2024-01-11T14:11:36;17.88;;;7.55;;
80183;SDS011;69682;52.138;5.440;2024-01-11T14:14:02;11.52;;;6.20;;
80183;SDS011;69682;52.138;5.440;2024-01-11T14:16:29;12.27;;;6.18;;
80183;SDS011;69682;52.138;5.440;2024-01-11T14:18:56;13.48;;;6.82;;
80183;SDS011;69682;52.138;5.440;2024-01-11T14:21:23;15.80;;;7.57;;
80183;SDS011;69682;52.138;5.440;2024-01-11T14:23:51;13.23;;;6.25;;
80183;SDS011;69682;52.138;5.440;2024-01-11T14:26:18;15.93;;;6.70;;
80183;SDS011;69682;52.138;5.440;2024-01-11T14:28:44;11.90;;;5.97;;
80183;SDS011;69682;52.138;5.440;2024-01-11T14:31:11;16.27;;;7.63;;
80183;SDS011;69682;52.138;5.440;2024-01-11T14:33:38;14.20;;;7.15;;
80183;SDS011;69682;52.138;5.440;2024-01-11T14:36:07;18.92;;;6.75;;
80183;SDS011;69682;52.138;5.440;2024-01-11T14:38:35;17.67;;;7.57;;
80183;SDS011;69682;52.138;5.440;2024-01-11T14:41:01;13.45;;;6.32;;
80183;SDS011;69682;52.138;5.440;2024-01-11T14:43:31;8.75;;;4.38;;
80183;SDS011;69682;52.138;5.440;2024-01-11T14:45:58;12.95;;;5.97;;
80183;SDS011;69682;52.138;5.440;2024-01-11T14:48:25;14.30;;;6.70;;
80183;SDS011;69682;52.138;5.440;2024-01-11T14:50:53;16.55;;;5.53;;
80183;SDS011;69682;52.138;5.440;2024-01-11T14:53:19;16.38;;;7.47;;
80183;SDS011;69682;52.138;5.440;2024-01-11T14:55:47;17.45;;;6.63;;
80183;SDS011;69682;52.138;5.440;2024-01-11T14:58:14;10.88;;;5.75;;